METAR πλησιέστερων αεροδρομίων

 

LGIR - Iraklion Airport
Απόσταση από το σταθμό: ΒΔ 62km
Ενημερώθηκε: 25/04/2019 03:20
Μερικώς νεφελώδης
Μερικώς νεφελώδης
 Ανεμος από Ν
Ανεμος: Ν 41 km/h
Θερμοκρασία: 23°C
Σημείο Δρόσου: -3°C
Υγρασία: 17%
Βαρόμετρο: 1020 hPa
Νέφη: Μερικώς νεφελώδης
Ορατότητα: 10 km
Λεπτομέρειες νεφών: Λίγα σύννεφα 914 m
Μερικώς νεφελώδης 2743 m
2019/04/25 00:20 LGIR 250020Z 17022KT 9999 FEW030 SCT090 23/M03 Q1020 NOSIG
LGSA - Souda/Chania Airport
Απόσταση από το σταθμό: ΔΒΔ 154km
Ενημερώθηκε: 25/04/2019 03:20
Μερικώς νεφελώδης
Μερικώς νεφελώδης
 Ανεμος από Δ
Ανεμος: Δ 13 km/h
Θερμοκρασία: 16°C
Σημείο Δρόσου: 10°C
Υγρασία: 68%
Βαρόμετρο: 1020 hPa
Νέφη: Μερικώς νεφελώδης
Ορατότητα: 10 km
Λεπτομέρειες νεφών: Λίγα σύννεφα 762 m
Μερικώς νεφελώδης 2438 m
2019/04/25 00:20 LGSA 250020Z 28007KT 9999 FEW025 SCT080 16/10 Q1020